SCRIPT_RESULTS Banner
METAR for LQTZ

by Dr. Günther Eichhorn

METAR for LQTZ provided by aerobaticsweb.org
Current time: Saturday, 28 May, 2022, 19:01 UTC
(This may take a minute, please be patient)


The most recent METAR observation from LQTZ in our system was generated at
2022/05/28 18:30
The observation is:
2022/05/28 18:30
LQTZ 281830Z VRB02KT 8000 -SHRA FEW025TCU BKN035 12/12 Q1016

24 Hour Summary

Time (UTC) Temperature
°C (°F)
Dew Point
°C (°F)
Pressure
Inches (hPa)
Wind
mph (km/h)
Weather
00:00 28 May 16 (60 ) 15 (59 ) 29.88 (1012) Variable 2 (3)
01:00 28 May 16 (60 ) 15 (59 ) 29.88 (1012) Variable 2 (3)
02:00 28 May 18 (64 ) 17 (62 ) 29.91 (1013) NNW 8 (13)
03:00 28 May 18 (64 ) 15 (59 ) 29.94 (1014) Variable 3 (5)
04:00 28 May 17 (62 ) 16 (60 ) 29.94 (1014) E 3 (5)
05:00 28 May 17 (62 ) 15 (59 ) 29.94 (1014) NNE 5 (8)
06:00 28 May 18 (64 ) 13 (55 ) 29.97 (1015) NE 7 (11)
07:00 28 May 17 (62 ) 14 (57 ) 29.94 (1014) NNE 10 (16)
08:00 28 May 17 (62 ) 14 (57 ) 29.97 (1015) N 6 (10)
09:00 28 May 16 (60 ) 14 (57 ) 29.97 (1015) NNE 9 (14)
10:00 28 May 15 (59 ) 13 (55 ) 29.97 (1015) NNE 10 (16)
11:00 28 May 14 (57 ) 12 (53 ) 29.97 (1015) Variable 5 (8)
12:00 28 May 15 (59 ) 11 (51 ) 29.97 (1015) N 3 (5)
13:00 28 May 14 (57 ) 12 (53 ) 29.97 (1015) NNE 5 (8)
14:00 28 May 13 (55 ) 13 (55 ) 30.00 (1016) Variable 2 (3) light rain showers
15:00 28 May 13 (55 ) 13 (55 ) 30.00 (1016) N 5 (8) light rain showers
16:00 28 May 13 (55 ) 13 (55 ) 30.00 (1016) WNW 5 (8) light rain showers
17:00 28 May 13 (55 ) 12 (53 ) 29.97 (1015) Variable 2 (3) light rain
18:00 28 May 12 (53 ) 12 (53 ) 30.00 (1016) Variable 2 (3) light rain showers
19:00 27 May 22 (71 ) 20 (68 ) 29.94 (1014) NW 5 (8)
20:00 27 May 20 (68 ) 19 (66 ) 29.91 (1013) Variable 2 (3)
21:00 27 May 19 (66 ) 18 (64 ) 29.91 (1013) Variable 2 (3) thunder in the vicinity
22:00 27 May 22 (71 ) 17 (62 ) 29.91 (1013) Variable 2 (3) thunder
23:00 27 May 19 (66 ) 18 (64 ) 29.91 (1013) ENE 6 (10)
The information presented here is taken from products produced by the U.S. National Weather Service and other national and international agencies. Landings.com does not present this as official information. Please refer to official weather briefings for flight critical information.


access provided by Dr. Guenther Eichhorn at aerobaticsweb.org